createdAt,value
2018-12-24T00:01:26.540Z,5.87
2018-12-24T00:04:31.733Z,7.87
2018-12-24T00:07:36.807Z,7.80
2018-12-24T00:10:42.007Z,6.80
2018-12-24T00:13:47.091Z,7.70
2018-12-24T00:16:52.256Z,6.73
2018-12-24T00:19:57.323Z,6.27
2018-12-24T00:23:02.571Z,5.57
2018-12-24T00:26:07.641Z,5.50
2018-12-24T00:29:12.800Z,6.03
2018-12-24T00:32:17.866Z,5.80
2018-12-24T00:35:23.130Z,5.97
2018-12-24T00:38:28.204Z,6.20
2018-12-24T00:41:33.415Z,6.90
2018-12-24T00:44:38.490Z,6.83
2018-12-24T00:47:43.996Z,7.37
2018-12-24T00:50:49.469Z,7.43
2018-12-24T00:53:54.993Z,8.07
2018-12-24T00:57:00.368Z,7.43
2018-12-24T01:00:06.566Z,8.47
2018-12-24T01:03:11.938Z,8.43
2018-12-24T01:06:17.579Z,9.00
2018-12-24T01:09:22.953Z,10.30
2018-12-24T01:12:28.598Z,8.67
2018-12-24T01:15:33.971Z,7.30
2018-12-24T01:18:39.487Z,7.67
2018-12-24T01:21:44.862Z,7.63
2018-12-24T01:24:50.386Z,7.97
2018-12-24T01:27:55.759Z,7.47
2018-12-24T01:31:01.382Z,7.00
2018-12-24T01:34:06.805Z,6.10
2018-12-24T01:37:12.374Z,6.17
2018-12-24T01:40:17.745Z,5.90
2018-12-24T01:43:23.275Z,5.47
2018-12-24T01:46:28.676Z,6.27
2018-12-24T01:49:34.131Z,6.80
2018-12-24T01:52:39.534Z,6.47
2018-12-24T01:55:45.055Z,6.20
2018-12-24T01:58:50.432Z,7.53
2018-12-24T02:01:55.955Z,7.30
2018-12-24T02:05:01.422Z,7.27
2018-12-24T02:08:06.952Z,7.60
2018-12-24T02:11:12.322Z,9.00
2018-12-24T02:14:17.848Z,8.70
2018-12-24T02:17:23.221Z,10.00
2018-12-24T02:20:28.739Z,11.73
2018-12-24T02:23:34.124Z,12.83
2018-12-24T02:26:39.634Z,12.70
2018-12-24T02:29:45.280Z,12.17
2018-12-24T02:32:50.834Z,12.20
2018-12-24T02:35:56.217Z,11.70
2018-12-24T02:39:01.815Z,10.70
2018-12-24T02:42:07.193Z,12.17
2018-12-24T02:45:12.727Z,12.33
2018-12-24T02:48:18.116Z,11.63
2018-12-24T02:51:23.635Z,11.60
2018-12-24T02:54:29.214Z,11.17
2018-12-24T02:57:35.229Z,10.00
2018-12-24T03:00:40.616Z,9.80
2018-12-24T03:03:46.151Z,9.93
2018-12-24T03:06:51.529Z,9.83
2018-12-24T03:09:57.025Z,10.63
2018-12-24T03:13:03.280Z,9.17
2018-12-24T03:16:08.961Z,10.47
2018-12-24T03:19:14.343Z,8.83
2018-12-24T03:22:19.842Z,7.40
2018-12-24T03:25:25.213Z,6.97
2018-12-24T03:28:30.721Z,6.80
2018-12-24T03:31:36.096Z,8.97
2018-12-24T03:34:41.621Z,6.80
2018-12-24T03:37:46.996Z,6.23
2018-12-24T03:40:53.082Z,7.23
2018-12-24T03:43:58.462Z,7.60
2018-12-24T03:47:04.022Z,8.17
2018-12-24T03:50:09.393Z,7.50
2018-12-24T03:53:14.917Z,7.77
2018-12-24T03:56:20.385Z,7.50
2018-12-24T03:59:25.857Z,6.43
2018-12-24T04:02:31.228Z,8.20
2018-12-24T04:05:36.808Z,7.30
2018-12-24T04:08:42.192Z,5.57
2018-12-24T04:11:47.696Z,6.20
2018-12-24T04:14:53.170Z,6.90
2018-12-24T04:17:58.663Z,7.67
2018-12-24T04:21:04.038Z,7.70
2018-12-24T04:24:09.600Z,7.47
2018-12-24T04:27:14.962Z,5.73
2018-12-24T04:30:20.484Z,7.60
2018-12-24T04:33:25.865Z,11.20
2018-12-24T04:36:31.380Z,11.07
2018-12-24T04:39:36.758Z,12.23
2018-12-24T04:42:42.479Z,15.37
2018-12-24T04:45:47.856Z,12.53
2018-12-24T04:48:53.371Z,8.73
2018-12-24T04:51:58.797Z,11.57
2018-12-24T04:55:04.369Z,14.37
2018-12-24T04:58:09.841Z,14.83
2018-12-24T05:01:15.363Z,17.30
2018-12-24T05:04:20.744Z,20.63
2018-12-24T05:07:26.534Z,19.13
2018-12-24T05:10:31.911Z,20.67
2018-12-24T05:13:40.951Z,20.60
2018-12-24T05:16:44.548Z,20.33
2018-12-24T05:19:50.086Z,22.10
2018-12-24T05:22:55.469Z,21.20
2018-12-24T05:26:00.990Z,20.33
2018-12-24T05:29:06.369Z,21.13
2018-12-24T05:32:11.881Z,24.03
2018-12-24T05:35:17.262Z,23.47
2018-12-24T05:38:22.777Z,24.93
2018-12-24T05:41:28.207Z,28.30
2018-12-24T05:44:33.772Z,26.60
2018-12-24T05:47:39.151Z,27.27
2018-12-24T05:50:44.667Z,28.47
2018-12-24T05:53:50.047Z,26.53
2018-12-24T05:56:55.562Z,23.70
2018-12-24T06:00:01.028Z,23.27
2018-12-24T06:03:06.543Z,24.37
2018-12-24T06:06:11.921Z,25.13
2018-12-24T06:09:17.549Z,28.27
2018-12-24T06:12:22.931Z,27.97
2018-12-24T06:15:28.582Z,32.07
2018-12-24T06:18:34.264Z,29.40
2018-12-24T06:21:39.751Z,29.67
2018-12-24T06:24:45.130Z,28.50
2018-12-24T06:27:50.592Z,28.27
2018-12-24T06:30:55.965Z,28.33
2018-12-24T06:34:01.431Z,26.47
2018-12-24T06:37:06.813Z,29.47
2018-12-24T06:40:12.331Z,26.90
2018-12-24T06:43:17.711Z,32.80
2018-12-24T06:46:23.225Z,34.50
2018-12-24T06:49:28.649Z,33.30
2018-12-24T06:52:34.221Z,32.40
2018-12-24T06:55:39.601Z,31.67
2018-12-24T06:58:45.115Z,28.27
2018-12-24T07:01:50.593Z,33.30
2018-12-24T07:04:56.111Z,32.90
2018-12-24T07:08:01.491Z,35.53
2018-12-24T07:11:07.007Z,39.57
2018-12-24T07:14:15.529Z,40.80
2018-12-24T07:17:20.008Z,35.00
2018-12-24T07:20:25.383Z,35.73
2018-12-24T07:23:30.943Z,29.50
2018-12-24T07:26:36.325Z,31.70
2018-12-24T07:29:41.841Z,30.17
2018-12-24T07:32:47.221Z,27.80
2018-12-24T07:35:53.038Z,26.70
2018-12-24T07:38:58.420Z,25.27
2018-12-24T07:42:03.881Z,26.33
2018-12-24T07:45:09.259Z,25.23
2018-12-24T07:48:14.830Z,26.53
2018-12-24T07:51:20.209Z,28.60
2018-12-24T07:54:25.720Z,30.80
2018-12-24T07:57:31.422Z,28.07
2018-12-24T08:00:36.981Z,20.90
2018-12-24T08:03:42.425Z,17.70
2018-12-24T08:06:48.022Z,14.47
2018-12-24T08:09:53.404Z,13.97
2018-12-24T08:12:59.018Z,6.57
2018-12-24T08:16:04.474Z,7.57
2018-12-24T08:19:10.134Z,10.37
2018-12-24T08:22:15.498Z,6.23
2018-12-24T08:25:20.974Z,13.03
2018-12-24T08:28:26.351Z,13.27
2018-12-24T08:31:31.907Z,8.63
2018-12-24T08:34:37.282Z,10.80
2018-12-24T08:37:42.902Z,10.30
2018-12-24T08:40:48.282Z,12.70
2018-12-24T08:43:53.794Z,14.53
2018-12-24T08:46:59.181Z,12.50
2018-12-24T08:50:05.682Z,12.87
2018-12-24T08:53:11.063Z,10.97
2018-12-24T08:56:16.605Z,10.17
2018-12-24T08:59:21.981Z,15.40
2018-12-24T09:02:27.762Z,15.67
2018-12-24T09:05:33.149Z,19.50
2018-12-24T09:08:38.669Z,16.33
2018-12-24T09:11:44.051Z,24.03
2018-12-24T09:14:50.277Z,23.13
2018-12-24T09:17:55.965Z,18.87
2018-12-24T09:21:01.516Z,29.83
2018-12-24T09:24:06.896Z,15.07
2018-12-24T09:27:12.414Z,17.97
2018-12-24T09:30:18.581Z,14.20
2018-12-24T09:33:24.124Z,16.23
2018-12-24T09:36:29.508Z,12.97
2018-12-24T09:39:35.015Z,13.23
2018-12-24T09:42:40.406Z,14.40
2018-12-24T09:45:47.754Z,14.40
2018-12-24T09:48:53.134Z,10.80
2018-12-24T09:51:58.647Z,12.87
2018-12-24T09:55:06.951Z,9.40
2018-12-24T09:58:12.515Z,11.00
2018-12-24T10:01:17.930Z,14.27
2018-12-24T10:04:25.742Z,10.73
2018-12-24T10:07:40.184Z,17.17
2018-12-24T10:10:45.358Z,18.87
2018-12-24T10:13:50.989Z,20.83
2018-12-24T10:16:56.684Z,21.57
2018-12-24T10:20:02.051Z,22.60
2018-12-24T10:23:07.554Z,21.50
2018-12-24T10:26:12.938Z,17.83
2018-12-24T10:29:19.615Z,12.17
2018-12-24T10:32:25.058Z,20.30
2018-12-24T10:35:30.573Z,18.30
2018-12-24T10:38:36.393Z,20.30
2018-12-24T10:41:41.893Z,12.43
2018-12-24T10:44:47.266Z,17.30
2018-12-24T10:47:52.778Z,17.27
2018-12-24T10:50:58.157Z,24.77
2018-12-24T10:54:03.663Z,21.77
2018-12-24T10:57:09.110Z,22.47
2018-12-24T11:00:14.663Z,15.00
2018-12-24T11:03:20.112Z,17.90
2018-12-24T11:06:25.691Z,13.97
2018-12-24T11:09:31.608Z,10.70
2018-12-24T11:12:37.429Z,11.13
2018-12-24T11:15:42.810Z,7.00
2018-12-24T11:18:48.374Z,10.43
2018-12-24T11:21:53.768Z,14.83
2018-12-24T11:24:59.260Z,13.37
2018-12-24T11:28:04.642Z,15.37
2018-12-24T11:31:10.156Z,18.60
2018-12-24T11:34:15.543Z,16.17
2018-12-24T11:37:21.227Z,20.27
2018-12-24T11:40:26.615Z,16.90
2018-12-24T11:43:32.491Z,15.13
2018-12-24T11:46:37.859Z,11.77
2018-12-24T11:49:43.349Z,18.70
2018-12-24T11:52:50.283Z,16.50
2018-12-24T11:55:55.784Z,12.70
2018-12-24T11:59:01.239Z,8.30
2018-12-24T12:02:10.035Z,12.27
2018-12-24T12:05:13.860Z,8.43
2018-12-24T12:08:19.614Z,9.87
2018-12-24T12:11:24.997Z,8.93
2018-12-24T12:14:30.611Z,12.50
2018-12-24T12:17:35.994Z,8.37
2018-12-24T12:20:41.516Z,10.07
2018-12-24T12:23:47.221Z,10.70
2018-12-24T12:26:52.715Z,13.13
2018-12-24T12:29:58.108Z,11.17
2018-12-24T12:33:03.703Z,12.07
2018-12-24T12:36:09.169Z,12.13
2018-12-24T12:39:14.801Z,9.60
2018-12-24T12:42:20.231Z,11.63
2018-12-24T12:45:25.900Z,7.67
2018-12-24T12:48:31.283Z,10.80
2018-12-24T12:51:36.800Z,14.07
2018-12-24T12:54:42.187Z,11.83
2018-12-24T12:57:47.675Z,12.87
2018-12-24T13:00:53.141Z,10.93
2018-12-24T13:03:58.693Z,9.73
2018-12-24T13:07:04.074Z,10.67
2018-12-24T13:10:09.587Z,12.53
2018-12-24T13:13:15.055Z,12.00
2018-12-24T13:16:20.593Z,12.70
2018-12-24T13:19:26.134Z,10.23
2018-12-24T13:22:31.686Z,12.13
2018-12-24T13:25:37.126Z,9.23
2018-12-24T13:28:42.597Z,8.80
2018-12-24T13:31:47.973Z,9.50
2018-12-24T13:34:53.463Z,8.37
2018-12-24T13:37:58.843Z,9.07
2018-12-24T13:41:04.460Z,7.07
2018-12-24T13:44:09.916Z,8.37
2018-12-24T13:47:15.455Z,7.37
2018-12-24T13:50:58.476Z,7.20
2018-12-24T13:54:04.281Z,7.87
2018-12-24T13:57:09.557Z,6.87
2018-12-24T14:00:15.024Z,2.87
2018-12-24T14:03:20.301Z,6.37
2018-12-24T14:06:25.739Z,5.90
2018-12-24T14:09:31.013Z,2.80
2018-12-24T14:12:36.415Z,7.13
2018-12-24T14:15:41.779Z,5.00
2018-12-24T14:18:47.203Z,4.73
2018-12-24T14:21:52.479Z,5.67
2018-12-24T14:24:59.048Z,5.03
2018-12-24T14:28:04.282Z,7.07
2018-12-24T14:31:09.704Z,6.53
2018-12-24T14:34:16.568Z,7.77
2018-12-24T14:37:22.025Z,8.17
2018-12-24T14:40:27.309Z,8.67
2018-12-24T14:43:32.713Z,7.50
2018-12-24T14:46:37.996Z,8.23
2018-12-24T14:49:43.404Z,6.83
2018-12-24T14:52:48.684Z,7.57
2018-12-24T14:55:54.094Z,12.30
2018-12-24T14:58:59.382Z,12.77
2018-12-24T15:02:04.741Z,12.13
2018-12-24T15:05:10.018Z,11.43
2018-12-24T15:08:15.479Z,10.77
2018-12-24T15:11:20.767Z,13.17
2018-12-24T15:14:26.129Z,12.57
2018-12-24T15:17:31.443Z,9.10
2018-12-24T15:20:36.850Z,9.57
2018-12-24T15:23:42.127Z,11.97
2018-12-24T15:26:47.542Z,15.13
2018-12-24T15:29:52.820Z,9.23
2018-12-24T15:32:58.224Z,10.10
2018-12-24T15:36:03.501Z,7.83
2018-12-24T15:39:08.915Z,7.23
2018-12-24T15:42:14.193Z,9.10
2018-12-24T15:45:19.591Z,8.40
2018-12-24T15:48:24.933Z,6.83
2018-12-24T15:51:30.297Z,8.10
2018-12-24T15:54:35.577Z,10.43
2018-12-24T15:57:40.985Z,8.00
2018-12-24T16:00:46.260Z,8.63
2018-12-24T16:03:51.694Z,7.70
2018-12-24T16:06:56.955Z,6.40
2018-12-24T16:10:02.314Z,7.40
2018-12-24T16:13:07.589Z,7.27
2018-12-24T16:16:13.051Z,9.67
2018-12-24T16:19:18.429Z,17.67
2018-12-24T16:22:23.847Z,8.03
2018-12-24T16:25:29.116Z,8.50
2018-12-24T16:28:34.531Z,7.63
2018-12-24T16:31:39.813Z,8.80
2018-12-24T16:34:45.222Z,15.00
2018-12-24T16:37:50.511Z,70.27
2018-12-24T16:40:55.890Z,10.20
2018-12-24T16:44:01.168Z,9.83
2018-12-24T16:47:06.601Z,9.27
2018-12-24T16:50:11.882Z,10.77
2018-12-24T16:53:17.239Z,9.30
2018-12-24T16:56:22.522Z,11.57
2018-12-24T16:59:28.080Z,9.70
2018-12-24T17:02:33.363Z,11.37
2018-12-24T17:05:38.771Z,7.50
2018-12-24T17:08:44.044Z,8.43
2018-12-24T17:11:49.462Z,8.07
2018-12-24T17:14:54.746Z,10.23
2018-12-24T17:18:02.159Z,7.73
2018-12-24T17:21:07.177Z,5.80
2018-12-24T17:24:12.681Z,7.40
2018-12-24T17:27:17.955Z,6.10
2018-12-24T17:30:23.368Z,8.00
2018-12-24T17:33:28.644Z,6.93
2018-12-24T17:36:34.062Z,10.20
2018-12-24T17:39:39.336Z,7.33
2018-12-24T17:42:44.749Z,8.17
2018-12-24T17:45:50.027Z,8.20
2018-12-24T17:48:55.445Z,8.23
2018-12-24T17:52:00.726Z,9.17
2018-12-24T17:55:06.531Z,7.00
2018-12-24T17:58:11.789Z,8.67
2018-12-24T18:01:17.229Z,8.97
2018-12-24T18:04:22.508Z,7.67
2018-12-24T18:07:27.918Z,10.17
2018-12-24T18:10:33.192Z,7.63
2018-12-24T18:13:38.606Z,9.60
2018-12-24T18:16:43.879Z,9.63
2018-12-24T18:19:49.297Z,11.70
2018-12-24T18:22:54.729Z,5.47
2018-12-24T18:26:00.080Z,5.70
2018-12-24T18:29:05.440Z,9.47
2018-12-24T18:32:10.881Z,11.13
2018-12-24T18:35:16.161Z,12.83
2018-12-24T18:38:21.563Z,9.63
2018-12-24T18:41:26.840Z,7.40
2018-12-24T18:44:32.257Z,9.73
2018-12-24T18:47:37.539Z,9.90
2018-12-24T18:50:42.948Z,8.40
2018-12-24T18:53:48.224Z,8.93
2018-12-24T18:56:53.750Z,10.27
2018-12-24T18:59:59.020Z,9.07
2018-12-24T19:03:04.428Z,7.23
2018-12-24T19:06:09.704Z,10.20
2018-12-24T19:09:15.117Z,7.63
2018-12-24T19:12:20.419Z,10.13
2018-12-24T19:15:25.804Z,7.37
2018-12-24T19:18:31.159Z,11.40
2018-12-24T19:21:43.722Z,9.90
2018-12-24T19:24:43.520Z,8.87
2018-12-24T19:27:48.924Z,9.03
2018-12-24T19:30:54.204Z,8.63
2018-12-24T19:33:59.622Z,11.07
2018-12-24T19:37:04.914Z,9.40
2018-12-24T19:40:10.403Z,7.23
2018-12-24T19:43:15.682Z,10.03
2018-12-24T19:46:21.359Z,9.80
2018-12-24T19:49:26.811Z,8.53
2018-12-24T19:52:32.198Z,11.33
2018-12-24T19:55:37.476Z,9.57
2018-12-24T19:58:42.887Z,15.30
2018-12-24T20:01:48.165Z,7.10
2018-12-24T20:04:53.548Z,20.30
2018-12-24T20:07:59.067Z,9.03
2018-12-24T20:11:04.829Z,10.60
2018-12-24T20:14:10.104Z,9.03
2018-12-24T20:17:15.466Z,16.20
2018-12-24T20:20:20.746Z,11.27
2018-12-24T20:23:26.112Z,10.60
2018-12-24T20:26:31.383Z,9.83
2018-12-24T20:29:36.752Z,6.47
2018-12-24T20:32:42.033Z,11.17
2018-12-24T20:35:47.559Z,9.07
2018-12-24T20:38:52.851Z,10.50
2018-12-24T20:41:58.348Z,13.30
2018-12-24T20:45:03.702Z,14.00
2018-12-24T20:48:09.229Z,13.90
2018-12-24T20:51:16.238Z,12.80
2018-12-24T20:54:22.776Z,6.20
2018-12-24T20:57:28.070Z,8.27
2018-12-24T21:00:33.470Z,9.10
2018-12-24T21:03:38.748Z,10.70
2018-12-24T21:06:44.280Z,8.33
2018-12-24T21:09:49.533Z,11.77
2018-12-24T21:12:54.950Z,7.40
2018-12-24T21:16:00.228Z,6.67
2018-12-24T21:19:05.645Z,6.20
2018-12-24T21:22:10.925Z,7.27
2018-12-24T21:25:16.368Z,7.87
2018-12-24T21:28:21.717Z,6.73
2018-12-24T21:31:27.119Z,9.13
2018-12-24T21:34:32.408Z,6.23
2018-12-24T21:37:37.817Z,6.73
2018-12-24T21:40:43.236Z,7.87
2018-12-24T21:43:48.917Z,5.80
2018-12-24T21:46:54.417Z,9.00
2018-12-24T21:49:59.804Z,8.37
2018-12-24T21:53:05.390Z,6.87
2018-12-24T21:56:10.977Z,8.30
2018-12-24T21:59:16.560Z,7.63
2018-12-24T22:02:22.114Z,9.00
2018-12-24T22:05:27.390Z,9.90
2018-12-24T22:08:32.821Z,8.93
2018-12-24T22:11:38.093Z,7.90
2018-12-24T22:14:43.825Z,9.33
2018-12-24T22:17:49.104Z,8.73
2018-12-24T22:20:54.480Z,8.17
2018-12-24T22:23:59.758Z,9.43
2018-12-24T22:27:05.273Z,11.57
2018-12-24T22:30:10.817Z,8.73
2018-12-24T22:33:16.190Z,6.60
2018-12-24T22:36:21.472Z,6.47
2018-12-24T22:39:26.957Z,7.87
2018-12-24T22:42:32.281Z,7.93
2018-12-24T22:45:37.755Z,6.77
2018-12-24T22:48:43.033Z,7.03
2018-12-24T22:51:48.439Z,14.53
2018-12-24T22:54:53.711Z,8.80
2018-12-24T22:57:59.231Z,10.63
2018-12-24T23:01:04.584Z,7.67
2018-12-24T23:04:10.024Z,8.63
2018-12-24T23:07:15.303Z,9.43
2018-12-24T23:10:20.713Z,8.97
2018-12-24T23:13:25.991Z,7.40
2018-12-24T23:16:31.409Z,11.20
2018-12-24T23:19:36.729Z,11.50
2018-12-24T23:22:42.572Z,13.33
2018-12-24T23:25:48.227Z,12.27
2018-12-24T23:28:53.700Z,9.80
2018-12-24T23:31:59.119Z,7.50
2018-12-24T23:35:04.528Z,9.57
2018-12-24T23:38:09.804Z,8.30
2018-12-24T23:41:15.285Z,7.73
2018-12-24T23:44:20.634Z,8.30
2018-12-24T23:47:26.077Z,9.40
2018-12-24T23:50:31.351Z,7.10
2018-12-24T23:53:37.073Z,11.30
2018-12-24T23:56:42.348Z,9.93
2018-12-24T23:59:47.764Z,8.30
